createdAt,value
2018-10-03T00:04:51.679Z,101419.00
2018-10-03T00:09:44.923Z,101423.00
2018-10-03T00:14:38.155Z,101429.00
2018-10-03T00:19:31.414Z,101430.00
2018-10-03T00:24:24.643Z,101440.00
2018-10-03T00:29:17.919Z,101447.00
2018-10-03T00:34:11.173Z,101450.00
2018-10-03T00:39:06.685Z,101460.00
2018-10-03T00:43:59.945Z,101452.00
2018-10-03T00:48:53.172Z,101452.00
2018-10-03T00:53:46.427Z,101462.00
2018-10-03T00:58:39.733Z,101462.00
2018-10-03T01:03:33.096Z,101470.00
2018-10-03T01:08:26.531Z,101467.00
2018-10-03T01:13:19.755Z,101471.00
2018-10-03T01:18:12.990Z,101482.00
2018-10-03T01:23:06.321Z,101481.00
2018-10-03T01:27:59.566Z,101483.00
2018-10-03T01:32:52.840Z,101477.00
2018-10-03T01:37:46.670Z,101482.00
2018-10-03T01:42:39.943Z,101487.00
2018-10-03T01:47:33.204Z,101493.00
2018-10-03T01:52:26.434Z,101492.00
2018-10-03T01:57:19.751Z,101490.00
2018-10-03T02:02:13.125Z,101495.00
2018-10-03T02:07:06.640Z,101494.00
2018-10-03T02:11:59.902Z,101493.00
2018-10-03T02:16:53.157Z,101506.00
2018-10-03T02:21:46.409Z,101507.00
2018-10-03T02:26:39.662Z,101507.00
2018-10-03T02:31:33.141Z,101509.00
2018-10-03T02:36:26.407Z,101515.00
2018-10-03T02:41:19.666Z,101517.00
2018-10-03T02:46:13.003Z,101516.00
2018-10-03T02:51:06.470Z,101525.00
2018-10-03T02:55:59.713Z,101543.00
2018-10-03T03:00:52.937Z,101545.00
2018-10-03T03:05:46.246Z,101550.00
2018-10-03T03:10:39.560Z,101563.00
2018-10-03T03:15:32.803Z,101571.00
2018-10-03T03:20:26.071Z,101580.00
2018-10-03T03:25:19.342Z,101583.00
2018-10-03T03:30:12.601Z,101592.00
2018-10-03T03:35:05.868Z,101597.00
2018-10-03T03:39:59.103Z,101593.00
2018-10-03T03:44:52.378Z,101593.00
2018-10-03T03:49:45.640Z,101590.00
2018-10-03T03:54:38.910Z,101603.00
2018-10-03T03:59:32.143Z,101593.00
2018-10-03T04:04:25.419Z,101596.00
2018-10-03T04:09:18.669Z,101606.00
2018-10-03T04:14:12.020Z,101609.00
2018-10-03T04:19:05.330Z,101613.00
2018-10-03T04:23:59.003Z,101624.00
2018-10-03T04:28:52.275Z,101624.00
2018-10-03T04:33:45.502Z,101626.00
2018-10-03T04:38:38.745Z,101631.00
2018-10-03T04:43:31.996Z,101640.00
2018-10-03T04:48:25.325Z,101642.00
2018-10-03T04:53:18.576Z,101643.00
2018-10-03T04:58:11.848Z,101653.00
2018-10-03T05:03:06.085Z,101664.00
2018-10-03T05:07:59.322Z,101664.00
2018-10-03T05:12:53.521Z,101667.00
2018-10-03T05:17:46.819Z,101689.00
2018-10-03T05:22:40.174Z,101695.00
2018-10-03T05:27:33.440Z,101705.00
2018-10-03T05:32:26.705Z,101702.00
2018-10-03T05:37:20.037Z,101715.00
2018-10-03T05:42:13.311Z,101723.00
2018-10-03T05:47:06.777Z,101731.00
2018-10-03T05:51:59.995Z,101743.00
2018-10-03T05:56:53.229Z,101742.00
2018-10-03T06:01:46.593Z,101750.00
2018-10-03T06:06:39.867Z,101758.00
2018-10-03T06:11:33.146Z,101752.00
2018-10-03T06:16:26.366Z,101759.00
2018-10-03T06:21:19.693Z,101768.00
2018-10-03T06:26:12.953Z,101768.00
2018-10-03T06:31:06.666Z,101788.00
2018-10-03T06:35:59.929Z,101793.00
2018-10-03T06:40:53.188Z,101799.00
2018-10-03T06:45:46.466Z,101810.00
2018-10-03T06:50:39.791Z,101805.00
2018-10-03T06:55:33.015Z,101808.00
2018-10-03T07:00:26.263Z,101816.00
2018-10-03T07:05:19.542Z,101828.00
2018-10-03T07:10:12.836Z,101830.00
2018-10-03T07:15:06.183Z,101849.00
2018-10-03T07:19:59.460Z,101857.00
2018-10-03T07:24:52.777Z,101862.00
2018-10-03T07:29:46.033Z,101876.00
2018-10-03T07:34:39.302Z,101892.00
2018-10-03T07:39:32.564Z,101892.00
2018-10-03T07:44:25.841Z,101892.00
2018-10-03T07:49:19.103Z,101897.00
2018-10-03T07:54:12.357Z,101917.00
2018-10-03T07:59:06.003Z,101927.00
2018-10-03T08:03:59.205Z,101924.00
2018-10-03T08:08:52.457Z,101929.00
2018-10-03T08:13:45.733Z,101933.00
2018-10-03T08:18:38.980Z,101945.00
2018-10-03T08:23:32.777Z,101959.00
2018-10-03T08:28:26.038Z,101963.00
2018-10-03T08:33:19.337Z,101968.00
2018-10-03T08:38:12.629Z,101970.00
2018-10-03T08:43:06.713Z,101974.00
2018-10-03T08:47:59.970Z,101979.00
2018-10-03T08:52:53.300Z,101984.00
2018-10-03T08:57:46.583Z,101982.00
2018-10-03T09:02:39.865Z,101979.00
2018-10-03T09:07:33.102Z,101985.00
2018-10-03T09:12:26.701Z,101980.00
2018-10-03T09:17:19.937Z,101989.00
2018-10-03T09:22:13.265Z,101995.00
2018-10-03T09:27:06.519Z,101998.00
2018-10-03T09:31:59.846Z,101996.00
2018-10-03T09:36:53.065Z,102005.00
2018-10-03T09:41:46.331Z,102000.00
2018-10-03T09:46:40.116Z,102012.00
2018-10-03T09:51:33.697Z,102014.00
2018-10-03T09:56:27.183Z,102022.00
2018-10-03T10:01:26.115Z,102033.00
2018-10-03T10:06:19.436Z,102028.00
2018-10-03T10:11:12.721Z,102024.00
2018-10-03T10:16:05.937Z,102035.00
2018-10-03T10:21:00.189Z,102043.00
2018-10-03T10:25:53.444Z,102051.00
2018-10-03T10:30:46.755Z,102048.00
2018-10-03T10:35:40.001Z,102051.00
2018-10-03T10:40:33.752Z,102058.00
2018-10-03T10:45:27.086Z,102066.00
2018-10-03T10:50:20.771Z,102068.00
2018-10-03T10:55:14.096Z,102070.00
2018-10-03T11:00:07.473Z,102068.00
2018-10-03T11:05:01.305Z,102062.00
2018-10-03T11:09:54.578Z,102068.00
2018-10-03T11:14:47.816Z,102070.00
2018-10-03T11:19:41.112Z,102071.00
2018-10-03T11:24:34.638Z,102073.00
2018-10-03T11:29:27.709Z,102076.00
2018-10-03T11:34:20.962Z,102087.00
2018-10-03T11:39:14.252Z,102084.00
2018-10-03T11:44:07.573Z,102079.00
2018-10-03T11:49:00.859Z,102084.00
2018-10-03T11:53:54.122Z,102066.00
2018-10-03T11:58:47.379Z,102075.00
2018-10-03T12:03:40.676Z,102075.00
2018-10-03T12:08:33.903Z,102074.00
2018-10-03T12:13:27.253Z,102078.00
2018-10-03T12:18:20.478Z,102079.00
2018-10-03T12:23:28.659Z,102076.00
2018-10-03T12:28:21.909Z,102070.00
2018-10-03T12:33:15.195Z,102068.00
2018-10-03T12:38:08.467Z,102061.00
2018-10-03T12:43:01.833Z,102052.00
2018-10-03T12:47:55.446Z,102058.00
2018-10-03T12:52:48.896Z,102055.00
2018-10-03T12:57:43.100Z,102054.00
2018-10-03T13:02:36.418Z,102047.00
2018-10-03T13:07:29.655Z,102045.00
2018-10-03T13:12:23.344Z,102044.00
2018-10-03T13:17:18.058Z,102049.00
2018-10-03T13:22:12.966Z,102043.00
2018-10-03T13:27:07.821Z,102050.00
2018-10-03T13:32:03.283Z,102047.00
2018-10-03T13:36:56.829Z,102045.00
2018-10-03T13:41:50.838Z,102036.00
2018-10-03T13:46:44.105Z,102040.00
2018-10-03T13:51:37.407Z,102049.00
2018-10-03T13:56:30.672Z,102053.00
2018-10-03T14:01:23.914Z,102054.00
2018-10-03T14:06:17.223Z,102057.00
2018-10-03T14:11:10.790Z,102062.00
2018-10-03T14:16:04.003Z,102059.00
2018-10-03T14:20:57.239Z,102050.00
2018-10-03T14:25:50.499Z,102048.00
2018-10-03T14:30:43.807Z,102037.00
2018-10-03T14:35:37.053Z,102048.00
2018-10-03T14:40:30.386Z,102055.00
2018-10-03T14:45:23.649Z,102052.00
2018-10-03T14:50:16.893Z,102054.00
2018-10-03T14:55:10.726Z,102054.00
2018-10-03T15:00:05.568Z,102060.00
2018-10-03T15:04:58.855Z,102053.00
2018-10-03T15:09:52.124Z,102057.00
2018-10-03T15:14:45.439Z,102060.00
2018-10-03T15:19:39.308Z,102061.00
2018-10-03T15:24:32.513Z,102061.00
2018-10-03T15:29:25.833Z,102058.00
2018-10-03T15:34:19.108Z,102060.00
2018-10-03T15:39:12.380Z,102059.00
2018-10-03T15:44:05.929Z,102064.00
2018-10-03T15:48:59.317Z,102068.00
2018-10-03T15:53:52.614Z,102072.00
2018-10-03T15:58:45.884Z,102069.00
2018-10-03T16:03:39.303Z,102076.00
2018-10-03T16:08:32.545Z,102079.00
2018-10-03T16:13:25.821Z,102080.00
2018-10-03T16:18:19.047Z,102086.00
2018-10-03T16:23:12.351Z,102092.00
2018-10-03T16:28:05.682Z,102089.00
2018-10-03T16:32:58.971Z,102095.00
2018-10-03T16:37:52.389Z,102100.00
2018-10-03T16:42:46.120Z,102100.00
2018-10-03T16:47:39.387Z,102103.00
2018-10-03T16:52:32.629Z,102105.00
2018-10-03T16:57:25.898Z,102113.00
2018-10-03T17:02:19.177Z,102121.00
2018-10-03T17:22:11.101Z,102144.00
2018-10-03T17:27:05.008Z,102146.00
2018-10-03T17:31:58.285Z,102142.00
2018-10-03T17:36:52.635Z,102147.00
2018-10-03T17:41:46.167Z,102151.00
2018-10-03T17:46:46.925Z,102160.00
2018-10-03T17:51:40.216Z,102167.00
2018-10-03T17:56:33.603Z,102168.00
2018-10-03T18:01:28.761Z,102181.00
2018-10-03T18:06:22.799Z,102187.00
2018-10-03T18:11:16.161Z,102188.00
2018-10-03T18:16:09.540Z,102195.00
2018-10-03T18:21:02.771Z,102204.00
2018-10-03T18:25:56.702Z,102200.00
2018-10-03T18:30:49.993Z,102195.00
2018-10-03T18:35:43.303Z,102203.00
2018-10-03T18:40:36.604Z,102200.00
2018-10-03T18:45:29.936Z,102206.00
2018-10-03T18:50:25.099Z,102206.00
2018-10-03T18:55:21.184Z,102213.00
2018-10-03T19:00:14.862Z,102205.00
2018-10-03T19:05:09.881Z,102216.00
2018-10-03T19:10:03.546Z,102215.00
2018-10-03T19:14:58.582Z,102220.00
2018-10-03T19:19:53.035Z,102216.00
2018-10-03T19:24:47.415Z,102219.00
2018-10-03T19:29:41.406Z,102224.00
2018-10-03T19:34:35.175Z,102227.00
2018-10-03T19:39:28.737Z,102230.00
2018-10-03T19:44:22.437Z,102231.00
2018-10-03T19:49:16.290Z,102241.00
2018-10-03T19:54:13.653Z,102241.00
2018-10-03T19:59:09.265Z,102238.00
2018-10-03T20:04:03.377Z,102242.00
2018-10-03T20:08:59.381Z,102239.00
2018-10-03T20:13:52.841Z,102234.00
2018-10-03T20:18:46.089Z,102233.00
2018-10-03T20:23:42.341Z,102237.00
2018-10-03T20:28:39.118Z,102241.00
2018-10-03T20:33:34.764Z,102240.00
2018-10-03T20:38:29.023Z,102239.00
2018-10-03T20:43:22.244Z,102237.00
2018-10-03T20:48:15.927Z,102250.00
2018-10-03T20:53:09.649Z,102243.00
2018-10-03T20:58:12.814Z,102246.00
2018-10-03T21:03:07.097Z,102249.00
2018-10-03T21:08:00.359Z,102259.00
2018-10-03T21:12:53.617Z,102262.00
2018-10-03T21:17:46.872Z,102260.00
2018-10-03T21:22:40.141Z,102264.00
2018-10-03T21:27:33.400Z,102266.00
2018-10-03T21:32:26.732Z,102270.00
2018-10-03T21:37:19.963Z,102273.00
2018-10-03T21:42:13.233Z,102278.00
2018-10-03T21:47:06.540Z,102281.00
2018-10-03T21:51:59.842Z,102280.00
2018-10-03T21:56:53.737Z,102272.00
2018-10-03T22:01:47.002Z,102273.00
2018-10-03T22:06:40.250Z,102272.00
2018-10-03T22:11:33.937Z,102270.00
2018-10-03T22:16:27.178Z,102272.00
2018-10-03T22:21:21.232Z,102268.00
2018-10-03T22:26:14.645Z,102267.00
2018-10-03T22:31:08.207Z,102265.00
2018-10-03T22:36:01.444Z,102264.00
2018-10-03T22:40:54.707Z,102265.00
2018-10-03T22:45:48.020Z,102270.00
2018-10-03T22:50:41.323Z,102285.00
2018-10-03T22:55:41.140Z,102259.00
2018-10-03T23:00:34.419Z,102284.00
2018-10-03T23:05:27.670Z,102291.00
2018-10-03T23:10:20.945Z,102291.00
2018-10-03T23:15:14.279Z,102296.00
2018-10-03T23:20:07.574Z,102294.00
2018-10-03T23:25:00.820Z,102304.00
2018-10-03T23:29:54.018Z,102301.00
2018-10-03T23:34:47.203Z,102295.00
2018-10-03T23:39:40.440Z,102294.00
2018-10-03T23:44:33.675Z,102290.00
2018-10-03T23:49:26.922Z,102284.00
2018-10-03T23:54:20.203Z,102282.00
2018-10-03T23:59:14.122Z,102282.00
